Time;durP1;ratioP1;P1;durP2;ratioP2;P2;SDS_P1;SDS_P2;PMS_P1;PMS_P2;Temp;Humidity;BMP_temperature;BMP_pressure;BME280_temperature;BME280_humidity;BME280_pressure;Samples;Min_cycle;Max_cycle;Signal;HPM_P1;HPM_P2
2023/01/29 00:02:19;;;;;;;16.27;10.30;;;;;;;;;;5119664;27;20443;-78
2023/01/29 00:04:45;;;;;;;15.27;10.23;;;;;;;;;;5113469;27;20506;-78
2023/01/29 00:07:11;;;;;;;15.57;10.40;;;;;;;;;;5118420;27;20424;-77
2023/01/29 00:09:37;;;;;;;16.95;10.95;;;;;;;;;;5111458;28;20424;-77
2023/01/29 00:12:03;;;;;;;18.75;11.23;;;;;;;;;;5121777;27;20473;-78
2023/01/29 00:14:29;;;;;;;17.38;11.02;;;;;;;;;;5130552;27;20457;-77
2023/01/29 00:16:55;;;;;;;17.27;11.40;;;;;;;;;;5120220;27;20918;-77
2023/01/29 00:19:22;;;;;;;17.23;11.23;;;;;;;;;;5111845;28;20947;-77
2023/01/29 00:21:48;;;;;;;18.07;11.27;;;;;;;;;;5113408;27;20410;-78
2023/01/29 00:24:14;;;;;;;16.95;11.10;;;;;;;;;;5120709;27;20425;-78
2023/01/29 00:26:41;;;;;;;16.90;11.23;;;;;;;;;;5125697;27;22239;-77
2023/01/29 00:29:07;;;;;;;18.10;12.00;;;;;;;;;;5094385;28;20460;-78
2023/01/29 00:31:33;;;;;;;19.23;12.40;;;;;;;;;;5100063;27;20911;-77
2023/01/29 00:33:59;;;;;;;17.45;11.55;;;;;;;;;;5129986;27;20509;-78
2023/01/29 00:36:26;;;;;;;19.15;11.75;;;;;;;;;;5123282;27;20470;-78
2023/01/29 00:38:57;;;;;;;18.17;11.82;;;;;;;;;;5121747;27;20422;-77
2023/01/29 00:46:53;;;;;;;19.52;11.88;;;;;;;;;;5116234;27;20498;-79
2023/01/29 00:49:19;;;;;;;16.53;11.27;;;;;;;;;;5128562;27;20429;-79
2023/01/29 00:52:22;;;;;;;18.90;11.13;;;;;;;;;;5113570;27;20424;-77
2023/01/29 00:54:34;;;;;;;17.02;10.68;;;;;;;;;;5109956;28;20788;-77
2023/01/29 00:57:03;;;;;;;18.42;11.15;;;;;;;;;;5109012;28;20460;-77
2023/01/29 00:59:30;;;;;;;17.33;11.30;;;;;;;;;;5094187;28;20416;-77
2023/01/29 01:04:40;;;;;;;17.90;11.77;;;;;;;;;;5114596;27;20412;-77
2023/01/29 01:07:07;;;;;;;16.60;11.55;;;;;;;;;;5110679;27;20432;-77
2023/01/29 01:12:20;;;;;;;18.90;11.55;;;;;;;;;;5110710;28;20753;-78
2023/01/29 01:14:46;;;;;;;18.02;11.93;;;;;;;;;;5113466;27;20434;-78
2023/01/29 01:17:12;;;;;;;16.58;11.07;;;;;;;;;;5117260;27;20408;-78
2023/01/29 01:19:38;;;;;;;17.70;11.93;;;;;;;;;;5112553;28;20804;-79
2023/01/29 01:22:04;;;;;;;17.67;11.60;;;;;;;;;;5114435;27;20759;-79
2023/01/29 01:24:30;;;;;;;17.50;12.57;;;;;;;;;;5122087;27;20446;-78
2023/01/29 01:26:56;;;;;;;20.93;14.27;;;;;;;;;;5122261;27;20503;-78
2023/01/29 01:29:23;;;;;;;19.95;13.50;;;;;;;;;;5122323;27;20427;-78
2023/01/29 01:31:49;;;;;;;21.10;13.70;;;;;;;;;;5118843;28;20467;-78
2023/01/29 01:34:15;;;;;;;20.63;13.85;;;;;;;;;;5122008;27;20426;-78
2023/01/29 01:36:41;;;;;;;19.33;14.10;;;;;;;;;;5121010;28;20453;-78
2023/01/29 01:39:07;;;;;;;21.60;14.73;;;;;;;;;;5102627;28;20461;-78
2023/01/29 01:41:33;;;;;;;22.92;15.32;;;;;;;;;;5100896;27;20489;-78
2023/01/29 01:44:01;;;;;;;22.05;16.00;;;4.70;99.90;;;;;;5118805;28;20915;-78
2023/01/29 01:46:32;;;;;;;21.13;15.27;;;;;;;;;;5111174;28;20416;-78
2023/01/29 01:49:20;;;;;;;22.70;15.52;;;4.70;99.90;;;;;;5113111;28;20460;-78
2023/01/29 01:51:48;;;;;;;25.60;16.15;;;;;;;;;;5128441;28;20952;-78
2023/01/29 01:54:19;;;;;;;25.17;17.33;;;;;;;;;;5119879;28;20424;-78
2023/01/29 01:56:47;;;;;;;27.83;17.70;;;;;;;;;;5114570;28;20414;-78
2023/01/29 01:59:15;;;;;;;25.13;16.88;;;;;;;;;;5122373;28;20435;-78
2023/01/29 02:01:42;;;;;;;24.77;17.00;;;;;;;;;;5092748;28;20424;-78
2023/01/29 02:09:46;;;;;;;26.00;17.60;;;;;;;;;;5125706;28;20957;-78
2023/01/29 02:12:13;;;;;;;26.27;19.10;;;;;;;;;;5129528;28;20412;-78
2023/01/29 02:14:40;;;;;;;26.10;17.67;;;;;;;;;;5118204;28;20434;-78
2023/01/29 02:17:08;;;;;;;24.67;16.98;;;;;;;;;;5123306;28;20423;-78
2023/01/29 02:19:37;;;;;;;23.43;16.83;;;;;;;;;;5115521;28;20458;-78
2023/01/29 02:22:03;;;;;;;26.02;16.63;;;;;;;;;;5110752;28;20420;-78
2023/01/29 02:24:38;;;;;;;24.75;17.10;;;;;;;;;;5122808;27;20489;-78
2023/01/29 02:27:14;;;;;;;22.60;16.15;;;;;;;;;;5124091;28;20414;-78
2023/01/29 02:29:52;;;;;;;22.70;16.42;;;;;;;;;;5122366;28;20422;-78
2023/01/29 02:32:30;;;;;;;24.85;17.27;;;;;;;;;;5109820;28;20424;-78
2023/01/29 02:38:11;;;;;;;23.33;15.68;;;;;;;;;;5110644;28;20419;-78
2023/01/29 02:40:43;;;;;;;21.38;14.43;;;;;;;;;;5108414;27;20421;-78
2023/01/29 02:43:23;;;;;;;22.63;14.82;;;;;;;;;;5114473;27;20452;-78
2023/01/29 02:45:58;;;;;;;21.52;15.30;;;;;;;;;;5126873;27;20939;-78
2023/01/29 02:48:26;;;;;;;20.77;14.60;;;5.00;99.90;;;;;;5125402;27;20557;-78
2023/01/29 02:51:02;;;;;;;23.90;15.73;;;;;;;;;;5125876;27;20412;-78
2023/01/29 02:53:31;;;;;;;20.77;14.32;;;;;;;;;;5113691;27;20436;-78
2023/01/29 02:56:09;;;;;;;22.63;14.90;;;;;;;;;;5120145;27;20918;-77
2023/01/29 02:58:38;;;;;;;20.58;14.60;;;;;;;;;;5112895;27;20478;-77
2023/01/29 03:01:12;;;;;;;22.40;14.73;;;;;;;;;;5124599;27;20419;-77
2023/01/29 03:03:41;;;;;;;21.65;14.65;;;;;;;;;;5127000;27;20418;-78
2023/01/29 03:06:27;;;;;;;21.13;14.43;;;;;;;;;;5116146;27;20416;-78
2023/01/29 03:08:57;;;;;;;23.05;15.20;;;;;;;;;;5113114;27;20426;-78
2023/01/29 03:11:23;;;;;;;25.88;15.13;;;;;;;;;;5119930;27;21092;-78
2023/01/29 03:13:58;;;;;;;24.92;15.68;;;;;;;;;;5112565;27;20416;-78
2023/01/29 03:16:32;;;;;;;23.63;15.88;;;;;;;;;;5119458;27;20447;-77
2023/01/29 03:19:05;;;;;;;22.50;16.00;;;;;;;;;;5103932;27;20438;-78
2023/01/29 03:21:50;;;;;;;25.17;16.37;;;;;;;;;;5116683;27;20789;-78
2023/01/29 03:32:38;;;;;;;22.23;15.93;;;;;;;;;;5112756;27;20420;-78
2023/01/29 03:35:05;;;;;;;23.90;15.85;;;;;;;;;;5115731;27;20492;-78
2023/01/29 03:37:44;;;;;;;25.42;16.77;;;;;;;;;;5114387;27;20424;-78
2023/01/29 03:40:10;;;;;;;23.17;16.70;;;;;;;;;;5098433;27;20768;-78
2023/01/29 03:42:36;;;;;;;24.00;16.65;;;;;;;;;;5114947;27;20455;-78
2023/01/29 03:45:02;;;;;;;22.70;16.63;;;;;;;;;;5113410;27;20397;-78
2023/01/29 03:47:31;;;;;;;23.08;16.45;;;;;;;;;;5113941;27;20444;-78
2023/01/29 03:50:12;;;;;;;24.80;16.80;;;;;;;;;;5112557;28;20442;-78
2023/01/29 03:52:38;;;;;;;23.75;15.93;;;;;;;;;;5108732;27;20424;-78
2023/01/29 03:55:14;;;;;;;22.67;16.20;;;;;;;;;;5119166;27;20432;-78
2023/01/29 03:57:52;;;;;;;23.27;16.25;;;;;;;;;;5130253;27;20748;-77
2023/01/29 04:00:36;;;;;;;25.05;16.92;;;4.60;99.90;;;;;;5110519;28;20420;-78
2023/01/29 04:03:07;;;;;;;25.27;16.55;;;;;;;;;;5113855;27;20412;-78
2023/01/29 04:05:43;;;;;;;26.80;16.47;;;;;;;;;;5114405;28;20408;-77
2023/01/29 04:08:15;;;;;;;25.13;15.90;;;;;;;;;;5116386;27;20588;-78
2023/01/29 04:10:42;;;;;;;23.80;16.40;;;;;;;;;;5121841;27;21024;-77
2023/01/29 04:13:10;;;;;;;24.23;16.33;;;;;;;;;;5127963;27;20414;-77
2023/01/29 04:15:40;;;;;;;24.08;15.80;;;;;;;;;;5134068;27;20467;-78
2023/01/29 04:18:06;;;;;;;22.42;16.33;;;;;;;;;;5116861;27;20520;-78
2023/01/29 04:20:33;;;;;;;22.58;16.05;;;;;;;;;;5107215;27;20434;-78
2023/01/29 04:22:59;;;;;;;23.65;15.93;;;;;;;;;;5124300;27;20416;-78
2023/01/29 04:25:27;;;;;;;22.53;15.77;;;;;;;;;;5125680;27;20828;-77
2023/01/29 04:28:12;;;;;;;24.13;15.38;;;;;;;;;;5127679;27;20419;-78
2023/01/29 04:30:38;;;;;;;22.52;15.90;;;;;;;;;;5128686;27;20416;-78
2023/01/29 04:33:07;;;;;;;21.13;15.93;;;;;;;;;;5117180;27;20443;-78
2023/01/29 04:35:53;;;;;;;21.93;15.60;;;;;;;;;;5112521;28;20407;-77
2023/01/29 04:38:33;;;;;;;22.60;16.38;;;;;;;;;;5112510;27;20469;-77
2023/01/29 04:41:03;;;;;;;21.50;15.63;;;;;;;;;;5114395;27;20423;-78
2023/01/29 04:43:44;;;;;;;21.83;15.60;;;;;;;;;;5113904;27;20473;-77
2023/01/29 04:46:18;;;;;;;22.38;15.02;;;;;;;;;;5112607;27;20472;-77
2023/01/29 04:48:47;;;;;;;21.45;15.60;;;;;;;;;;5109852;27;20467;-77
2023/01/29 04:51:29;;;;;;;22.80;15.87;;;;;;;;;;5129483;27;20495;-77
2023/01/29 04:54:26;;;;;;;22.73;16.55;;;4.80;99.90;;;;;;5114108;27;20500;-77
2023/01/29 04:56:55;;;;;;;23.15;15.48;;;;;;;;;;5059806;28;20510;-77
2023/01/29 04:59:30;;;;;;;23.52;16.75;;;;;;;;;;5127121;27;20480;-77
2023/01/29 05:01:57;;;;;;;24.95;16.25;;;;;;;;;;5116206;27;20763;-78
2023/01/29 05:04:23;;;;;;;26.10;17.02;;;;;;;;;;5112398;28;20420;-77
2023/01/29 05:06:50;;;;;;;23.70;16.67;;;;;;;;;;5118920;27;20402;-77
2023/01/29 05:09:17;;;;;;;24.10;16.63;;;;;;;;;;5116496;27;20737;-78
2023/01/29 05:11:45;;;;;;;26.67;17.33;;;;;;;;;;5109853;27;20491;-78
2023/01/29 05:14:15;;;;;;;26.48;17.50;;;5.00;99.90;;;;;;5116009;27;20464;-77
2023/01/29 05:16:46;;;;;;;25.00;17.33;;;4.50;99.90;;;;;;5120626;27;20415;-78
2023/01/29 05:19:13;;;;;;;24.55;17.83;;;;;;;;;;5120043;27;20806;-78
2023/01/29 05:21:40;;;;;;;26.13;17.98;;;;;;;;;;5122353;27;20423;-77
2023/01/29 05:24:10;;;;;;;27.45;18.08;;;;;;;;;;5120506;27;20476;-77
2023/01/29 05:29:22;;;;;;;28.70;19.67;;;;;;;;;;5114413;28;20499;-77
2023/01/29 05:31:48;;;;;;;31.92;20.10;;;;;;;;;;5129807;27;20422;-77
2023/01/29 05:34:14;;;;;;;28.48;19.05;;;;;;;;;;5117082;28;20502;-77
2023/01/29 05:36:40;;;;;;;31.13;19.70;;;;;;;;;;5109151;28;20893;-78
2023/01/29 05:39:06;;;;;;;28.35;19.58;;;;;;;;;;5119013;28;20759;-77
2023/01/29 05:41:32;;;;;;;29.23;20.27;;;;;;;;;;5125282;27;20437;-77
2023/01/29 05:43:58;;;;;;;33.67;22.00;;;;;;;;;;5126301;28;20410;-77
2023/01/29 05:46:24;;;;;;;33.10;22.23;;;;;;;;;;5098149;28;20498;-77
2023/01/29 05:48:52;;;;;;;36.70;22.63;;;;;;;;;;5111080;28;20412;-77
2023/01/29 05:51:18;;;;;;;36.53;24.08;;;;;;;;;;5106776;28;20493;-78
2023/01/29 05:53:44;;;;;;;37.05;24.33;;;;;;;;;;5120682;28;20424;-78
2023/01/29 05:56:10;;;;;;;38.37;25.40;;;;;;;;;;5120429;28;20748;-78
2023/01/29 05:58:36;;;;;;;38.63;25.23;;;;;;;;;;5111841;28;20424;-78
2023/01/29 06:01:16;;;;;;;39.55;26.08;;;;;;;;;;5129872;27;20453;-77
2023/01/29 06:03:42;;;;;;;39.40;25.95;;;;;;;;;;5100533;28;20835;-78
2023/01/29 06:06:08;;;;;;;37.60;25.15;;;;;;;;;;5113646;28;20449;-78
2023/01/29 06:08:35;;;;;;;35.28;24.52;;;;;;;;;;5109524;28;20601;-78
2023/01/29 06:11:01;;;;;;;37.03;24.63;;;;;;;;;;5129829;27;20453;-78
2023/01/29 06:13:27;;;;;;;37.72;25.48;;;;;;;;;;5126493;28;20487;-78
2023/01/29 06:15:53;;;;;;;37.47;25.20;;;;;;;;;;5114978;27;20422;-79
2023/01/29 06:18:19;;;;;;;38.35;26.58;;;;;;;;;;5117777;27;20398;-78
2023/01/29 06:20:45;;;;;;;40.97;26.98;;;;;;;;;;5115007;27;20397;-78
2023/01/29 06:23:11;;;;;;;40.20;27.83;;;;;;;;;;5121959;27;20412;-78
2023/01/29 06:25:37;;;;;;;46.17;29.77;;;;;;;;;;5106304;27;21021;-78
2023/01/29 06:28:03;;;;;;;45.55;30.77;;;;;;;;;;5115988;27;20412;-78
2023/01/29 06:30:30;;;;;;;43.93;30.23;;;;;;;;;;5114373;27;20543;-78
2023/01/29 06:33:02;;;;;;;46.23;31.17;;;;;;;;;;5114267;27;20484;-78
2023/01/29 06:35:29;;;;;;;50.08;31.75;;;;;;;;;;5115847;27;20915;-78
2023/01/29 06:37:55;;;;;;;54.17;34.10;;;;;;;;;;5125636;27;20823;-78
2023/01/29 06:40:21;;;;;;;45.20;31.15;;;;;;;;;;5126574;27;20452;-78
2023/01/29 06:42:47;;;;;;;45.17;31.55;;;;;;;;;;5122835;27;20767;-78
2023/01/29 06:45:13;;;;;;;51.27;32.90;;;;;;;;;;5122934;27;20580;-78
2023/01/29 06:47:40;;;;;;;47.05;32.30;;;;;;;;;;5129080;27;20430;-78
2023/01/29 06:50:06;;;;;;;57.83;34.35;;;;;;;;;;5124967;27;20460;-78
2023/01/29 06:52:32;;;;;;;53.58;34.20;;;;;;;;;;5120728;27;20930;-77
2023/01/29 06:54:58;;;;;;;51.05;35.45;;;;;;;;;;5116848;27;20421;-78
2023/01/29 06:57:24;;;;;;;53.33;35.60;;;;;;;;;;5080922;28;20420;-78
2023/01/29 06:59:50;;;;;;;59.17;37.88;;;;;;;;;;5114296;27;20422;-78
2023/01/29 07:02:19;;;;;;;50.75;35.83;;;;;;;;;;5080593;27;20403;-78
2023/01/29 07:04:45;;;;;;;61.15;39.42;;;;;;;;;;5128755;27;20465;-78
2023/01/29 07:07:14;;;;;;;59.97;37.80;;;;;;;;;;5112737;27;20424;-78
2023/01/29 07:09:41;;;;;;;57.10;37.05;;;;;;;;;;5129772;27;20422;-78
2023/01/29 07:12:07;;;;;;;55.88;38.33;;;;;;;;;;5113428;28;20422;-79
2023/01/29 07:14:33;;;;;;;61.85;38.55;;;;;;;;;;5126524;27;20448;-77
2023/01/29 07:16:59;;;;;;;59.33;37.65;;;;;;;;;;5120674;27;20422;-78
2023/01/29 07:19:25;;;;;;;56.97;38.33;;;;;;;;;;5126475;27;20411;-78
2023/01/29 07:21:51;;;;;;;57.50;38.95;;;;;;;;;;5114394;27;20416;-77
2023/01/29 07:24:18;;;;;;;59.15;39.40;;;;;;;;;;5124210;27;20469;-77
2023/01/29 07:26:44;;;;;;;57.05;38.30;;;;;;;;;;5112096;27;21062;-77
2023/01/29 07:29:10;;;;;;;54.83;37.95;;;;;;;;;;5131658;27;20452;-77
2023/01/29 07:31:36;;;;;;;51.45;36.45;;;;;;;;;;5114287;27;20412;-78
2023/01/29 07:34:02;;;;;;;52.07;37.07;;;;;;;;;;5102515;27;20477;-78
2023/01/29 07:36:28;;;;;;;50.03;36.17;;;;;;;;;;5113131;27;20491;-78
2023/01/29 07:38:54;;;;;;;50.67;35.37;;;;;;;;;;5098352;27;20774;-78
2023/01/29 07:41:21;;;;;;;53.95;36.65;;;;;;;;;;5105334;27;20753;-78
2023/01/29 07:43:48;;;;;;;49.53;34.97;;;;;;;;;;5131936;27;20430;-78
2023/01/29 07:46:14;;;;;;;48.35;35.20;;;;;;;;;;5120396;27;20499;-79
2023/01/29 07:48:40;;;;;;;49.97;34.00;;;;;;;;;;5115251;27;20414;-77
2023/01/29 07:51:06;;;;;;;46.33;34.47;;;;;;;;;;5123638;27;20614;-77
2023/01/29 07:53:32;;;;;;;48.57;33.57;;;;;;;;;;5108900;27;20496;-77
2023/01/29 07:55:58;;;;;;;47.10;33.90;;;;;;;;;;5095895;27;20410;-78
2023/01/29 07:58:24;;;;;;;43.55;31.50;;;;;;;;;;5122319;27;20518;-78
2023/01/29 08:00:50;;;;;;;46.53;33.40;;;;;;;;;;5129030;27;20410;-79
2023/01/29 08:03:18;;;;;;;44.20;32.20;;;;;;;;;;5124352;27;20440;-77
2023/01/29 08:05:45;;;;;;;44.70;32.35;;;;;;;;;;5130365;27;20426;-78
2023/01/29 08:08:11;;;;;;;43.17;32.33;;;;;;;;;;5116501;27;20818;-78
2023/01/29 08:10:38;;;;;;;44.03;32.13;;;;;;;;;;5122478;27;20890;-78
2023/01/29 08:13:05;;;;;;;45.88;32.45;;;;;;;;;;5111085;27;20406;-78
2023/01/29 08:15:31;;;;;;;46.15;32.25;;;;;;;;;;5117095;27;20541;-79
2023/01/29 08:17:57;;;;;;;46.35;32.88;;;;;;;;;;5091308;27;20487;-77
2023/01/29 08:20:24;;;;;;;47.15;33.35;;;;;;;;;;5118679;27;20418;-79
2023/01/29 08:22:57;;;;;;;47.97;34.25;;;;;;;;;;5119304;27;20784;-79
2023/01/29 08:25:23;;;;;;;49.38;32.97;;;;;;;;;;5122001;27;20411;-79
2023/01/29 08:27:49;;;;;;;48.45;34.28;;;;;;;;;;5119932;27;20429;-79
2023/01/29 08:30:15;;;;;;;50.42;33.95;;;;;;;;;;5127821;27;20426;-79
2023/01/29 08:32:41;;;;;;;52.10;34.60;;;;;;;;;;5095803;28;20749;-79
2023/01/29 08:35:08;;;;;;;49.80;34.33;;;;;;;;;;5114968;27;20447;-79
2023/01/29 08:37:34;;;;;;;48.05;33.67;;;;;;;;;;5111779;28;20401;-78
2023/01/29 08:40:00;;;;;;;50.50;34.08;;;;;;;;;;5118768;27;20421;-78
2023/01/29 08:42:26;;;;;;;47.07;33.13;;;;;;;;;;5116892;27;20998;-80
2023/01/29 08:44:52;;;;;;;50.17;34.42;;;;;;;;;;5129555;27;20414;-79
2023/01/29 08:47:18;;;;;;;47.90;33.90;;;;;;;;;;5132314;27;20406;-79
2023/01/29 08:49:44;;;;;;;51.25;34.05;;;;;;;;;;5131812;27;20402;-79
2023/01/29 08:52:10;;;;;;;54.55;34.88;;;;;;;;;;5095201;28;20428;-79
2023/01/29 08:54:36;;;;;;;52.78;34.88;;;;;;;;;;5125105;27;20421;-79
2023/01/29 08:57:02;;;;;;;51.38;34.30;;;;;;;;;;5132256;27;20440;-79
2023/01/29 08:59:28;;;;;;;52.50;34.92;;;;;;;;;;5131657;27;20402;-79
2023/01/29 09:01:54;;;;;;;53.10;34.25;;;;;;;;;;5129594;27;20417;-80
2023/01/29 09:04:21;;;;;;;51.95;35.20;;;4.60;99.90;;;;;;5114856;27;20402;-79
2023/01/29 09:06:47;;;;;;;56.28;37.03;;;;;;;;;;5108471;27;20431;-80
2023/01/29 09:09:13;;;;;;;54.50;36.38;;;;;;;;;;5112510;27;20424;-80
2023/01/29 09:11:39;;;;;;;54.15;35.70;;;;;;;;;;5110873;28;20565;-79
2023/01/29 09:14:05;;;;;;;51.03;34.38;;;;;;;;;;5118776;27;20419;-79
2023/01/29 09:16:31;;;;;;;50.55;33.95;;;;;;;;;;5102780;27;20496;-80
2023/01/29 09:18:58;;;;;;;51.60;34.90;;;;;;;;;;5121285;27;20491;-79
2023/01/29 09:21:24;;;;;;;54.80;35.00;;;;;;;;;;5116980;27;20418;-79
2023/01/29 09:23:50;;;;;;;53.35;33.88;;;;;;;;;;5120394;27;20419;-80
2023/01/29 09:26:16;;;;;;;51.58;35.30;;;;;;;;;;5112879;28;20897;-79
2023/01/29 09:28:42;;;;;;;51.42;34.83;;;;;;;;;;5121065;27;20418;-79
2023/01/29 09:31:08;;;;;;;48.95;33.92;;;;;;;;;;5115143;27;20423;-79
2023/01/29 09:33:34;;;;;;;49.65;33.22;;;;;;;;;;5097747;28;20942;-79
2023/01/29 09:36:02;;;;;;;49.23;33.40;;;;;;;;;;5109504;28;20492;-79
2023/01/29 09:38:28;;;;;;;52.47;34.95;;;;;;;;;;5103241;28;20936;-79
2023/01/29 09:40:57;;;;;;;52.35;34.65;;;;;;;;;;5121078;27;20407;-79
2023/01/29 09:43:40;;;;;;;50.38;33.28;;;;;;;;;;5103358;28;20418;-79
2023/01/29 09:46:35;;;;;;;50.73;32.57;;;4.70;99.90;;;;;;5115519;28;20981;-79
2023/01/29 09:49:05;;;;;;;52.13;34.25;;;;;;;;;;5088202;28;20554;-79
2023/01/29 09:51:35;;;;;;;48.58;33.03;;;;;;;;;;5125654;27;20419;-78
2023/01/29 09:54:14;;;;;;;50.80;33.47;;;;;;;;;;5123290;27;20569;-79
2023/01/29 09:56:41;;;;;;;47.72;32.70;;;;;;;;;;5114253;27;20427;-79
2023/01/29 09:59:10;;;;;;;50.33;33.13;;;;;;;;;;5119066;27;20429;-78
2023/01/29 10:01:42;;;;;;;48.45;32.08;;;;;;;;;;5097884;27;20423;-78
2023/01/29 10:04:20;;;;;;;51.47;33.33;;;;;;;;;;5119916;27;20432;-78
2023/01/29 10:06:49;;;;;;;49.80;31.53;;;;;;;;;;5128142;27;20422;-79
2023/01/29 10:09:34;;;;;;;47.90;31.50;;;;;;;;;;5123472;27;20809;-79
2023/01/29 10:12:19;;;;;;;56.17;34.38;;;;;;;;;;5130933;27;20410;-78
2023/01/29 10:15:03;;;;;;;54.60;34.70;;;;;;;;;;5122564;27;20914;-79
2023/01/29 10:17:29;;;;;;;53.50;34.38;;;;;;;;;;5117594;27;20422;-79
2023/01/29 10:19:59;;;;;;;51.25;33.70;;;;;;;;;;5118622;27;20858;-79
2023/01/29 10:22:33;;;;;;;53.92;34.15;;;;;;;;;;5117790;27;20416;-79
2023/01/29 10:24:59;;;;;;;54.80;34.38;;;;;;;;;;5119582;27;20499;-79
2023/01/29 10:27:31;;;;;;;58.85;35.17;;;;;;;;;;5132974;27;20411;-79
2023/01/29 10:29:57;;;;;;;59.13;35.55;;;;;;;;;;5125698;27;20414;-79
2023/01/29 10:32:25;;;;;;;58.58;35.35;;;;;;;;;;5127396;27;20433;-79
2023/01/29 10:35:01;;;;;;;59.25;35.70;;;;;;;;;;5100847;27;20416;-79
2023/01/29 10:37:40;;;;;;;59.78;36.47;;;;;;;;;;5119774;27;20909;-79
2023/01/29 10:40:22;;;;;;;58.97;37.03;;;;;;;;;;5122446;27;20763;-79
2023/01/29 10:43:06;;;;;;;67.00;38.33;;;;;;;;;;5128119;27;20941;-79
2023/01/29 10:45:35;;;;;;;67.35;37.70;;;;;;;;;;5129060;27;20453;-80
2023/01/29 10:48:19;;;;;;;63.30;37.42;;;;;;;;;;5131910;27;20446;-79
2023/01/29 10:50:45;;;;;;;66.70;38.45;;;;;;;;;;5116679;27;20863;-79
2023/01/29 10:53:17;;;;;;;65.35;36.67;;;;;;;;;;5096955;27;20995;-80
2023/01/29 10:55:51;;;;;;;65.35;39.15;;;;;;;;;;5124918;27;20913;-78
2023/01/29 10:58:55;;;;;;;66.03;38.50;;;4.80;99.90;;;;;;5108277;28;20442;-79
2023/01/29 11:01:21;;;;;;;65.65;38.72;;;;;;;;;;5064063;27;20406;-80
2023/01/29 11:03:54;;;;;;;67.32;38.88;;;;;;;;;;5102456;28;20420;-79
2023/01/29 11:06:28;;;;;;;61.77;38.00;;;;;;;;;;5116919;27;20815;-78
2023/01/29 11:09:07;;;;;;;68.38;38.97;;;;;;;;;;5120468;27;20411;-79
2023/01/29 11:11:46;;;;;;;64.80;38.55;;;;;;;;;;5117198;27;20422;-79
2023/01/29 11:14:15;;;;;;;64.47;36.78;;;;;;;;;;5116700;27;20424;-79
2023/01/29 11:16:47;;;;;;;60.63;37.22;;;;;;;;;;5117256;27;20783;-80
2023/01/29 11:19:13;;;;;;;61.38;36.53;;;;;;;;;;5121590;27;20977;-79
2023/01/29 11:22:01;;;;;;;65.90;38.50;;;;;;;;;;5098033;28;20813;-80
2023/01/29 11:24:27;;;;;;;61.35;37.17;;;;;;;;;;5113804;27;20416;-79
2023/01/29 11:26:58;;;;;;;66.40;38.60;;;;;;;;;;5128943;27;20459;-80
2023/01/29 11:29:33;;;;;;;66.22;38.75;;;;;;;;;;5100429;27;20420;-79
2023/01/29 11:32:01;;;;;;;70.60;38.25;;;;;;;;;;5120821;27;20396;-79
2023/01/29 11:34:29;;;;;;;66.88;38.65;;;;;;;;;;5128203;27;20505;-79
2023/01/29 11:37:14;;;;;;;66.43;38.95;;;;;;;;;;5119797;27;20927;-79
2023/01/29 11:39:45;;;;;;;70.97;39.22;;;;;;;;;;5117905;27;20408;-79
2023/01/29 11:42:19;;;;;;;74.67;39.77;;;;;;;;;;5118609;27;20575;-79
2023/01/29 11:44:45;;;;;;;63.83;37.42;;;;;;;;;;5121194;27;20446;-79
2023/01/29 11:47:11;;;;;;;62.67;36.08;;;;;;;;;;5112907;27;20895;-79
2023/01/29 11:49:38;;;;;;;60.25;35.78;;;;;;;;;;5110746;27;20444;-87
2023/01/29 11:52:05;;;;;;;59.25;33.63;;;;;;;;;;5114982;27;20418;-86
2023/01/29 11:54:35;;;;;;;54.05;33.20;;;;;;;;;;5105943;27;20447;-85
2023/01/29 11:57:02;;;;;;;47.47;30.65;;;;;;;;;;5114671;27;20427;-85
2023/01/29 11:59:48;;;;;;;48.88;29.77;;;;;;;;;;5097479;28;20908;-84
2023/01/29 12:02:17;;;;;;;45.83;29.50;;;;;;;;;;5095610;28;20408;-84
2023/01/29 12:04:44;;;;;;;42.58;27.73;;;;;;;;;;5101172;28;20424;-84
2023/01/29 12:07:15;;;;;;;42.70;26.55;;;;;;;;;;5077173;28;20417;-86
2023/01/29 12:09:49;;;;;;;40.65;25.50;;;;;;;;;;5104458;28;20446;-85
2023/01/29 12:12:34;;;;;;;40.20;27.02;;;;;;;;;;5097188;28;20433;-86
2023/01/29 12:15:15;;;;;;;41.90;27.63;;;;;;;;;;5090048;28;20950;-85
2023/01/29 12:17:43;;;;;;;41.88;26.67;;;;;;;;;;5076416;28;20932;-86
2023/01/29 12:20:12;;;;;;;43.95;26.98;;;;;;;;;;5107769;28;20419;-85
2023/01/29 12:22:43;;;;;;;42.03;26.20;;;;;;;;;;5095636;28;20405;-86
2023/01/29 12:25:23;;;;;;;41.85;26.75;;;;;;;;;;5086449;28;20461;-85
2023/01/29 12:27:58;;;;;;;39.05;25.40;;;;;;;;;;5076310;28;20413;-86
2023/01/29 12:30:28;;;;;;;42.28;25.52;;;;;;;;;;5094368;28;20414;-81
2023/01/29 12:33:15;;;;;;;38.00;24.33;;;;;;;;;;5094422;28;20397;-81
2023/01/29 12:35:47;;;;;;;37.78;24.38;;;5.90;99.90;;;;;;5091693;28;20510;-81
2023/01/29 12:38:20;;;;;;;41.05;26.05;;;;;;;;;;5095932;28;20908;-81
2023/01/29 12:40:48;;;;;;;38.72;24.67;;;;;;;;;;5103555;28;20409;-81
2023/01/29 12:43:18;;;;;;;42.97;27.23;;;;;;;;;;5075245;28;20409;-80
2023/01/29 12:45:47;;;;;;;46.17;27.67;;;;;;;;;;5085895;28;20428;-81
2023/01/29 12:48:16;;;;;;;44.95;26.63;;;;;;;;;;5085153;28;20401;-80
2023/01/29 12:50:42;;;;;;;50.30;27.23;;;;;;;;;;5098796;28;20400;-80
2023/01/29 12:53:11;;;;;;;43.83;26.70;;;;;;;;;;5096717;28;20462;-81
2023/01/29 12:55:39;;;;;;;40.03;24.90;;;;;;;;;;5093712;28;20501;-80
2023/01/29 12:58:27;;;;;;;38.95;24.67;;;;;;;;;;5090269;28;20890;-82
2023/01/29 13:00:54;;;;;;;38.90;24.00;;;;;;;;;;5111052;27;20923;-82
2023/01/29 13:03:20;;;;;;;40.63;24.38;;;;;;;;;;5116230;27;20563;-83
2023/01/29 13:05:50;;;;;;;38.92;24.17;;;;;;;;;;5119482;27;20437;-84
2023/01/29 13:08:19;;;;;;;34.40;22.20;;;;;;;;;;5104594;27;20880;-85
2023/01/29 13:10:47;;;;;;;32.60;21.43;;;;;;;;;;5123134;27;20410;-84
2023/01/29 13:13:27;;;;;;;34.60;21.58;;;;;;;;;;5124407;27;20902;-86
2023/01/29 13:15:55;;;;;;;30.60;20.73;;;;;;;;;;5096410;28;20424;-85
2023/01/29 13:18:36;;;;;;;30.50;19.92;;;;;;;;;;5110852;28;20412;-84
2023/01/29 13:21:03;;;;;;;33.08;21.77;;;;;;;;;;5114755;27;20417;-84
2023/01/29 13:23:41;;;;;;;52.70;25.02;;;;;;;;;;5095091;28;20754;-83
2023/01/29 13:26:07;;;;;;;45.00;26.13;;;;;;;;;;5120548;27;20419;-84
2023/01/29 13:28:33;;;;;;;36.25;24.17;;;;;;;;;;5101810;27;20474;-86
2023/01/29 13:31:10;;;;;;;36.72;23.30;;;;;;;;;;5118639;27;20413;-84
2023/01/29 13:33:37;;;;;;;38.15;23.85;;;;;;;;;;5093027;28;20911;-84
2023/01/29 13:36:06;;;;;;;36.47;23.67;;;;;;;;;;5108275;28;20492;-84
2023/01/29 13:38:35;;;;;;;39.63;24.73;;;;;;;;;;5098009;28;20484;-86
2023/01/29 13:41:07;;;;;;;38.92;25.10;;;;;;;;;;5113069;28;20409;-85
2023/01/29 13:43:41;;;;;;;38.03;24.30;;;;;;;;;;5095236;28;20416;-87
2023/01/29 13:46:14;;;;;;;41.78;26.65;;;;;;;;;;5098377;28;20439;-85
2023/01/29 13:48:42;;;;;;;43.67;28.15;;;;;;;;;;5115578;27;20472;-84
2023/01/29 13:51:15;;;;;;;46.50;29.30;;;;;;;;;;5095305;28;20501;-84
2023/01/29 13:53:42;;;;;;;48.65;30.52;;;;;;;;;;5111104;28;20499;-83
2023/01/29 13:56:27;;;;;;;102.30;35.03;;;5.50;99.90;;;;;;5115206;28;20472;-84
2023/01/29 13:58:54;;;;;;;53.63;31.70;;;;;;;;;;5125556;27;20786;-83
2023/01/29 14:01:40;;;;;;;51.70;32.03;;;;;;;;;;5112477;28;20471;-83
2023/01/29 14:04:20;;;;;;;51.42;31.80;;;;;;;;;;5107273;28;20921;-84
2023/01/29 14:06:54;;;;;;;52.97;33.60;;;;;;;;;;5101842;28;20419;-85
2023/01/29 14:09:44;;;;;;;50.97;31.33;;;;;;;;;;5117028;28;20425;-84
2023/01/29 14:12:22;;;;;;;53.20;32.53;;;;;;;;;;5075747;28;20456;-86
2023/01/29 14:14:48;;;;;;;57.28;34.08;;;;;;;;;;5123638;28;20457;-83
2023/01/29 14:17:15;;;;;;;52.78;32.35;;;;;;;;;;5103844;28;20468;-85
2023/01/29 14:20:11;;;;;;;51.80;32.92;;;;;;;;;;5106888;28;20416;-85
2023/01/29 14:22:37;;;;;;;51.75;32.25;;;;;;;;;;5027604;27;20417;-84
2023/01/29 14:25:04;;;;;;;53.90;32.75;;;;;;;;;;5109761;28;20951;-85
2023/01/29 14:27:31;;;;;;;57.33;34.05;;;;;;;;;;5112701;28;20416;-84
2023/01/29 14:30:01;;;;;;;69.20;35.40;;;;;;;;;;5090158;28;20466;-83
2023/01/29 14:32:27;;;;;;;56.42;33.75;;;;;;;;;;5117122;27;20402;-84
2023/01/29 14:35:02;;;;;;;55.55;33.08;;;;;;;;;;5104160;27;20797;-84
2023/01/29 14:37:33;;;;;;;54.58;31.95;;;;;;;;;;5129995;27;20420;-85
2023/01/29 14:40:11;;;;;;;54.22;30.83;;;;;;;;;;5121677;27;20487;-84
2023/01/29 14:42:38;;;;;;;57.40;32.78;;;;;;;;;;5122099;27;20422;-84
2023/01/29 14:45:24;;;;;;;49.20;29.85;;;;;;;;;;5122808;27;20533;-84
2023/01/29 14:47:50;;;;;;;52.42;30.52;;;;;;;;;;5104713;27;20507;-85
2023/01/29 14:50:32;;;;;;;52.53;29.53;;;;;;;;;;5118378;27;20500;-86
2023/01/29 14:53:04;;;;;;;51.08;29.50;;;;;;;;;;5105392;27;20415;-86
2023/01/29 14:55:35;;;;;;;50.53;30.10;;;;;;;;;;5122046;27;20456;-85
2023/01/29 14:58:02;;;;;;;50.77;30.00;;;;;;;;;;5096335;28;20424;-84
2023/01/29 15:00:34;;;;;;;50.30;30.55;;;;;;;;;;5112257;27;20411;-85
2023/01/29 15:03:01;;;;;;;52.33;30.50;;;;;;;;;;5125182;27;20468;-85